Time;durP1;ratioP1;P1;durP2;ratioP2;P2;SDS_P1;SDS_P2;PMS_P1;PMS_P2;Temp;Humidity;BMP_temperature;BMP_pressure;BME280_temperature;BME280_humidity;BME280_pressure;Samples;Min_cycle;Max_cycle;Signal;HPM_P1;HPM_P2
2021/12/01 00:00:14;;;;;;;34.00;19.33;;;9.20;99.90;;;;;;5071944;28;20039;-74
2021/12/01 00:02:40;;;;;;;44.30;20.73;;;9.20;99.90;;;;;;5071479;28;20398;-74
2021/12/01 00:05:08;;;;;;;34.78;18.85;;;9.20;99.90;;;;;;5071680;28;20028;-74
2021/12/01 00:07:37;;;;;;;42.25;21.80;;;9.20;99.90;;;;;;5071145;28;20091;-75
2021/12/01 00:10:07;;;;;;;42.63;22.38;;;9.30;99.90;;;;;;5053621;28;20098;-74
2021/12/01 00:12:33;;;;;;;45.28;20.67;;;9.30;99.90;;;;;;5053610;28;20421;-74
2021/12/01 00:14:58;;;;;;;38.35;20.10;;;9.30;99.90;;;;;;5071705;28;20086;-73
2021/12/01 00:17:25;;;;;;;35.72;22.40;;;9.30;99.90;;;;;;5052683;28;20105;-75
2021/12/01 00:19:51;;;;;;;42.40;21.50;;;9.30;99.90;;;;;;5071210;28;20052;-75
2021/12/01 00:22:16;;;;;;;38.10;20.42;;;9.30;99.90;;;;;;5070927;28;20203;-74
2021/12/01 00:24:42;;;;;;;36.78;20.90;;;9.30;99.90;;;;;;5054474;28;20127;-74
2021/12/01 00:27:08;;;;;;;40.95;21.95;;;9.30;99.90;;;;;;5071720;28;20090;-74
2021/12/01 00:29:33;;;;;;;47.60;22.85;;;9.40;99.90;;;;;;5071209;28;20104;-75
2021/12/01 00:31:59;;;;;;;40.47;21.25;;;9.30;99.90;;;;;;5065044;28;20158;-75
2021/12/01 00:34:25;;;;;;;45.85;20.98;;;9.30;99.90;;;;;;5071006;28;20036;-74
2021/12/01 00:36:51;;;;;;;41.15;18.70;;;9.20;99.90;;;;;;5071033;28;20044;-74
2021/12/01 00:39:16;;;;;;;35.28;18.63;;;9.20;99.90;;;;;;5070034;28;20052;-75
2021/12/01 00:41:42;;;;;;;34.75;19.20;;;9.30;99.90;;;;;;5071834;28;20521;-75
2021/12/01 00:44:09;;;;;;;34.65;19.35;;;9.40;99.90;;;;;;5071289;28;20071;-75
2021/12/01 00:46:40;;;;;;;60.65;19.67;;;9.40;99.90;;;;;;5052165;28;20565;-75
2021/12/01 00:49:05;;;;;;;;;;;9.30;99.90;;;;;;5071062;28;20048;-75
2021/12/01 00:51:31;;;;;;;27.15;15.43;;;9.40;99.90;;;;;;5071149;28;19920;-75
2021/12/01 00:53:56;;;;;;;29.30;16.33;;;9.30;99.90;;;;;;5052898;28;20037;-75
2021/12/01 00:56:22;;;;;;;22.10;13.90;;;9.40;99.90;;;;;;5070956;28;20138;-74
2021/12/01 00:58:48;;;;;;;26.50;15.48;;;9.30;99.90;;;;;;5070817;28;20036;-75
2021/12/01 01:01:14;;;;;;;24.33;14.18;;;9.30;99.90;;;;;;5069842;28;20075;-73
2021/12/01 01:03:39;;;;;;;21.65;13.13;;;9.40;99.90;;;;;;5070753;28;20036;-74
2021/12/01 01:06:05;;;;;;;20.33;13.30;;;9.30;99.90;;;;;;5071239;28;20090;-75
2021/12/01 01:08:31;;;;;;;21.95;11.68;;;9.40;99.90;;;;;;5070594;28;20103;-76
2021/12/01 01:16:23;;;;;;;23.70;12.60;;;9.40;99.90;;;;;;5070241;28;20044;-75
2021/12/01 01:18:59;;;;;;;19.90;11.32;;;9.40;99.90;;;;;;5070742;28;20405;-75
2021/12/01 01:21:28;;;;;;;21.33;9.30;;;9.50;99.90;;;;;;5070593;28;20118;-74
2021/12/01 01:23:54;;;;;;;24.35;9.55;;;9.50;99.90;;;;;;5070248;28;20510;-75
2021/12/01 01:26:21;;;;;;;14.15;8.30;;;9.40;99.90;;;;;;5070332;28;20058;-75
2021/12/01 01:28:48;;;;;;;18.10;9.35;;;9.50;99.90;;;;;;5070291;28;20055;-75
2021/12/01 01:31:14;;;;;;;27.38;9.20;;;9.40;99.90;;;;;;5069362;28;20036;-74
2021/12/01 01:33:39;;;;;;;19.02;9.07;;;9.40;99.90;;;;;;5070500;28;20119;-75
2021/12/01 01:36:05;;;;;;;21.17;8.57;;;9.50;99.90;;;;;;5070333;28;20525;-75
2021/12/01 01:38:32;;;;;;;18.67;6.70;;;9.40;99.90;;;;;;5069096;28;20540;-75
2021/12/01 01:41:06;;;;;;;23.30;8.18;;;9.40;99.90;;;;;;5067999;28;20094;-75
2021/12/01 01:43:33;;;;;;;17.33;6.35;;;9.40;99.90;;;;;;5069859;28;20128;-75
2021/12/01 01:45:59;;;;;;;20.17;6.40;;;9.50;99.90;;;;;;5069236;28;20445;-73
2021/12/01 01:48:30;;;;;;;18.30;6.25;;;9.50;99.90;;;;;;5068889;28;20483;-74
2021/12/01 01:50:57;;;;;;;21.60;5.53;;;9.50;99.90;;;;;;5069920;28;20460;-74
2021/12/01 01:53:25;;;;;;;15.98;3.90;;;9.40;99.90;;;;;;5069207;28;20040;-74
2021/12/01 01:55:53;;;;;;;10.55;3.75;;;9.40;99.90;;;;;;5069659;28;20058;-74
2021/12/01 01:58:21;;;;;;;12.27;3.20;;;9.40;99.90;;;;;;5068970;28;20435;-75
2021/12/01 02:00:52;;;;;;;19.90;5.35;;;9.40;99.90;;;;;;5069735;28;20425;-75
2021/12/01 02:03:20;;;;;;;12.75;3.25;;;9.50;99.90;;;;;;5050437;28;20052;-73
2021/12/01 02:05:46;;;;;;;13.10;3.47;;;9.40;99.90;;;;;;5070132;28;20501;-74
2021/12/01 02:08:20;;;;;;;10.75;3.58;;;9.50;99.90;;;;;;5070153;28;20052;-74
2021/12/01 02:10:50;;;;;;;9.65;2.72;;;9.40;99.90;;;;;;5052215;28;20048;-75
2021/12/01 02:13:17;;;;;;;7.53;2.95;;;9.40;99.90;;;;;;5069119;28;20512;-74
2021/12/01 02:15:44;;;;;;;11.35;2.65;;;9.40;99.90;;;;;;5069337;28;20108;-73
2021/12/01 02:18:10;;;;;;;8.93;3.00;;;9.40;99.90;;;;;;5069665;28;20136;-74
2021/12/01 02:20:36;;;;;;;9.38;2.72;;;9.40;99.90;;;;;;5069302;28;20111;-74
2021/12/01 02:23:02;;;;;;;6.72;1.65;;;9.40;99.90;;;;;;5069510;28;20105;-74
2021/12/01 02:25:28;;;;;;;9.15;2.47;;;9.40;99.90;;;;;;5069276;28;20119;-75
2021/12/01 02:27:53;;;;;;;8.88;3.13;;;9.50;99.90;;;;;;5069327;28;20102;-74
2021/12/01 02:30:19;;;;;;;15.95;3.30;;;9.50;99.90;;;;;;5050531;28;20524;-74
2021/12/01 02:32:45;;;;;;;16.70;4.32;;;9.40;99.90;;;;;;5070010;28;20041;-75
2021/12/01 02:35:11;;;;;;;16.25;3.40;;;9.40;99.90;;;;;;5070239;28;20040;-74
2021/12/01 02:37:37;;;;;;;7.80;2.33;;;9.50;99.90;;;;;;5051471;28;20071;-74
2021/12/01 02:40:05;;;;;;;9.68;3.22;;;9.50;99.90;;;;;;5067139;28;20123;-74
2021/12/01 02:42:30;;;;;;;12.80;2.60;;;9.50;99.90;;;;;;5068650;28;20498;-75
2021/12/01 02:44:56;;;;;;;16.27;3.78;;;9.50;99.90;;;;;;5069462;28;20047;-75
2021/12/01 02:47:24;;;;;;;14.27;1.95;;;9.50;99.90;;;;;;5068122;28;20098;-74
2021/12/01 02:49:53;;;;;;;14.88;3.38;;;9.50;99.90;;;;;;5069314;28;20114;-75
2021/12/01 02:52:19;;;;;;;16.25;2.83;;;9.50;99.90;;;;;;5067642;28;20140;-74
2021/12/01 02:54:45;;;;;;;9.95;2.15;;;9.50;99.90;;;;;;5069781;28;20397;-73
2021/12/01 02:57:12;;;;;;;16.17;2.92;;;9.50;99.90;;;;;;5069081;28;20123;-74
2021/12/01 02:59:38;;;;;;;13.75;2.60;;;9.50;99.90;;;;;;5051273;28;20088;-74
2021/12/01 03:02:05;;;;;;;13.60;3.17;;;9.50;99.90;;;;;;5068556;28;20045;-73
2021/12/01 03:04:31;;;;;;;15.75;3.03;;;9.60;99.90;;;;;;5068815;28;20508;-74
2021/12/01 03:06:57;;;;;;;13.85;2.80;;;9.60;99.90;;;;;;5072442;28;20082;-74
2021/12/01 03:09:23;;;;;;;10.85;2.20;;;9.60;99.90;;;;;;5072945;28;20435;-74
2021/12/01 03:11:50;;;;;;;14.82;2.70;;;9.60;99.90;;;;;;5072847;28;20051;-74
2021/12/01 03:14:17;;;;;;;9.68;3.67;;;9.50;99.90;;;;;;5072099;28;20457;-74
2021/12/01 03:16:44;;;;;;;11.82;3.22;;;9.50;99.90;;;;;;5071450;28;20505;-74
2021/12/01 03:19:10;;;;;;;10.63;4.05;;;9.60;99.90;;;;;;5073101;28;20041;-74
2021/12/01 03:21:37;;;;;;;20.33;4.40;;;9.60;99.90;;;;;;5072364;28;20098;-75
2021/12/01 03:24:04;;;;;;;21.42;4.28;;;9.50;99.90;;;;;;5073017;28;20040;-75
2021/12/01 03:26:30;;;;;;;23.25;5.82;;;9.50;99.90;;;;;;5053990;28;20055;-74
2021/12/01 03:28:57;;;;;;;24.05;4.20;;;9.50;99.90;;;;;;5071319;28;20105;-74
2021/12/01 03:31:23;;;;;;;27.85;4.75;;;9.40;99.90;;;;;;5071812;28;20036;-74
2021/12/01 03:33:49;;;;;;;24.30;4.97;;;9.40;99.90;;;;;;5072769;28;20043;-76
2021/12/01 03:36:14;;;;;;;18.27;3.38;;;9.50;99.90;;;;;;5072080;28;20055;-74
2021/12/01 03:38:40;;;;;;;17.00;4.07;;;9.50;99.90;;;;;;5072583;28;20082;-75
2021/12/01 03:41:05;;;;;;;29.00;5.88;;;9.40;99.90;;;;;;5072003;28;20044;-75
2021/12/01 03:43:31;;;;;;;19.85;2.63;;;9.40;99.90;;;;;;5054236;28;20524;-75
2021/12/01 03:45:57;;;;;;;19.45;3.20;;;9.40;99.90;;;;;;5071841;28;20059;-75
2021/12/01 03:48:24;;;;;;;23.15;5.35;;;9.40;99.90;;;;;;5071873;28;20122;-75
2021/12/01 03:50:51;;;;;;;25.77;5.97;;;9.50;99.90;;;;;;5072231;28;20048;-75
2021/12/01 03:53:18;;;;;;;33.63;7.07;;;9.40;99.90;;;;;;5071845;28;20048;-75
2021/12/01 03:55:44;;;;;;;24.17;4.70;;;9.40;99.90;;;;;;5071805;28;20045;-75
2021/12/01 03:58:10;;;;;;;23.30;3.30;;;9.40;99.90;;;;;;5072363;28;20055;-75
2021/12/01 04:00:36;;;;;;;19.35;2.80;;;9.30;99.90;;;;;;5071057;28;20051;-74
2021/12/01 04:03:01;;;;;;;16.75;3.47;;;9.30;99.90;;;;;;5054803;28;20049;-73
2021/12/01 04:05:27;;;;;;;18.10;3.40;;;9.30;99.90;;;;;;5054192;28;20040;-75
2021/12/01 04:07:54;;;;;;;22.48;3.30;;;9.40;99.90;;;;;;5071701;28;20546;-73
2021/12/01 04:10:20;;;;;;;17.95;3.20;;;9.40;99.90;;;;;;5053229;28;20063;-75
2021/12/01 04:12:46;;;;;;;20.90;4.10;;;9.30;99.90;;;;;;5072097;28;20052;-74
2021/12/01 04:15:13;;;;;;;17.05;3.25;;;9.30;99.90;;;;;;5071609;28;20106;-74
2021/12/01 04:17:40;;;;;;;27.23;5.20;;;9.30;99.90;;;;;;5071620;28;20486;-74
2021/12/01 04:20:06;;;;;;;26.00;3.83;;;9.30;99.90;;;;;;5071504;28;20037;-75
2021/12/01 04:22:32;;;;;;;13.93;3.00;;;9.30;99.90;;;;;;5071035;28;20139;-75
2021/12/01 04:24:57;;;;;;;14.07;3.05;;;9.40;99.90;;;;;;5071290;28;20123;-74
2021/12/01 04:27:23;;;;;;;22.52;4.53;;;9.30;99.90;;;;;;5071277;28;20076;-74
2021/12/01 04:29:49;;;;;;;26.00;3.53;;;9.20;99.90;;;;;;5071161;28;20044;-74
2021/12/01 04:32:14;;;;;;;12.90;2.30;;;9.30;99.90;;;;;;5071151;28;20045;-74
2021/12/01 04:34:40;;;;;;;15.40;2.50;;;9.40;99.90;;;;;;5070920;28;20090;-74
2021/12/01 04:37:06;;;;;;;12.48;2.85;;;9.30;99.90;;;;;;5071107;28;20449;-74
2021/12/01 04:39:32;;;;;;;9.90;2.03;;;9.40;99.90;;;;;;5049586;28;20486;-73
2021/12/01 04:42:07;;;;;;;19.30;3.38;;;9.40;99.90;;;;;;5065336;28;20135;-74
2021/12/01 04:44:35;;;;;;;3.80;1.70;;;9.40;99.90;;;;;;5071171;28;20049;-74
2021/12/01 04:47:03;;;;;;;6.18;2.08;;;9.40;99.90;;;;;;5052701;28;20044;-74
2021/12/01 04:49:31;;;;;;;5.40;2.05;;;9.30;99.90;;;;;;5052982;28;20036;-74
2021/12/01 04:51:59;;;;;;;5.65;2.70;;;9.40;99.90;;;;;;5069238;28;20075;-75
2021/12/01 04:54:26;;;;;;;4.30;1.90;;;9.40;99.90;;;;;;5070660;28;20052;-74
2021/12/01 04:56:52;;;;;;;3.53;1.98;;;9.30;99.90;;;;;;5071355;28;20056;-75
2021/12/01 04:59:19;;;;;;;4.22;2.28;;;9.40;99.90;;;;;;5070625;28;20045;-73
2021/12/01 05:01:45;;;;;;;2.22;1.30;;;9.40;99.90;;;;;;5069980;28;20516;-74
2021/12/01 05:04:11;;;;;;;5.40;1.38;;;9.40;99.90;;;;;;5070612;28;20115;-74
2021/12/01 05:06:38;;;;;;;2.83;1.67;;;9.40;99.90;;;;;;5052455;28;20041;-74
2021/12/01 05:09:05;;;;;;;1.77;1.40;;;9.40;99.90;;;;;;5052685;28;20079;-74
2021/12/01 05:11:30;;;;;;;4.80;1.95;;;9.30;99.90;;;;;;5070697;28;20072;-73
2021/12/01 05:13:56;;;;;;;1.60;1.50;;;9.30;99.90;;;;;;5070787;28;20130;-74
2021/12/01 05:16:22;;;;;;;1.58;0.75;;;9.30;99.90;;;;;;5068942;28;20048;-75
2021/12/01 05:18:47;;;;;;;1.45;0.93;;;9.30;99.90;;;;;;5070900;28;20508;-74
2021/12/01 05:21:13;;;;;;;1.65;0.65;;;9.30;99.90;;;;;;5069681;28;20040;-75
2021/12/01 05:23:39;;;;;;;0.82;0.80;;;9.20;99.90;;;;;;5070618;28;20053;-75
2021/12/01 05:26:06;;;;;;;0.93;0.80;;;9.30;99.90;;;;;;5052850;28;20071;-75
2021/12/01 05:28:32;;;;;;;0.65;0.55;;;9.30;99.90;;;;;;5069372;28;20045;-76
2021/12/01 05:30:58;;;;;;;0.93;0.60;;;9.30;99.90;;;;;;5069237;28;20032;-75
2021/12/01 05:33:24;;;;;;;0.70;0.50;;;9.20;99.90;;;;;;5052383;28;20048;-75
2021/12/01 05:35:49;;;;;;;2.67;1.55;;;9.20;99.90;;;;;;5070137;28;20032;-75
2021/12/01 05:38:16;;;;;;;1.85;1.23;;;9.10;99.90;;;;;;5067600;28;20044;-74
2021/12/01 05:40:42;;;;;;;1.08;0.75;;;9.10;99.90;;;;;;5070192;28;20394;-74
2021/12/01 05:43:07;;;;;;;0.90;0.90;;;9.00;99.90;;;;;;5069682;28;20040;-74
2021/12/01 05:45:33;;;;;;;2.78;1.65;;;9.10;99.90;;;;;;5068930;28;20044;-75
2021/12/01 05:47:59;;;;;;;1.50;1.30;;;9.10;99.90;;;;;;5070100;28;20402;-74
2021/12/01 05:50:25;;;;;;;1.45;0.90;;;9.00;99.90;;;;;;5069765;28;20036;-75
2021/12/01 05:52:51;;;;;;;1.88;1.00;;;9.10;99.90;;;;;;5068956;28;20051;-74
2021/12/01 05:55:16;;;;;;;1.25;1.05;;;9.00;99.90;;;;;;5069762;28;20491;-72
2021/12/01 05:57:43;;;;;;;1.90;1.30;;;9.00;99.90;;;;;;5070519;28;20051;-73
2021/12/01 06:00:11;;;;;;;1.63;1.45;;;9.00;99.90;;;;;;5069374;28;20090;-73
2021/12/01 06:02:37;;;;;;;2.15;1.70;;;9.00;99.90;;;;;;5051721;28;20487;-73
2021/12/01 06:05:04;;;;;;;3.15;2.28;;;8.90;99.90;;;;;;5051856;28;20052;-74
2021/12/01 06:07:30;;;;;;;4.22;2.88;;;8.90;99.90;;;;;;5068243;28;20040;-74
2021/12/01 06:10:00;;;;;;;2.38;2.15;;;8.90;99.90;;;;;;5052336;28;20501;-74
2021/12/01 06:12:25;;;;;;;3.25;2.80;;;8.90;99.90;;;;;;5069523;28;20044;-74
2021/12/01 06:14:51;;;;;;;3.55;2.78;;;9.00;99.90;;;;;;5068772;28;20043;-73
2021/12/01 06:17:17;;;;;;;4.07;2.83;;;8.90;99.90;;;;;;5069139;28;20040;-74
2021/12/01 06:19:42;;;;;;;2.80;2.22;;;9.00;99.90;;;;;;5069909;28;20124;-74
2021/12/01 06:22:08;;;;;;;4.80;3.00;;;9.00;99.90;;;;;;5068204;28;20080;-75
2021/12/01 06:24:35;;;;;;;3.20;2.30;;;9.00;99.90;;;;;;5069110;28;20052;-74
2021/12/01 06:27:02;;;;;;;2.83;2.50;;;8.90;99.90;;;;;;5031782;28;20041;-73
2021/12/01 06:29:27;;;;;;;4.53;2.75;;;8.90;99.90;;;;;;5048781;28;20056;-74
2021/12/01 06:31:53;;;;;;;2.92;2.05;;;8.90;99.90;;;;;;5032176;28;20049;-73
2021/12/01 06:34:18;;;;;;;2.83;2.55;;;8.90;99.90;;;;;;5065075;28;20411;-73
2021/12/01 06:36:44;;;;;;;2.53;2.33;;;8.90;99.90;;;;;;5069193;28;20048;-73
2021/12/01 06:39:10;;;;;;;3.05;2.20;;;8.90;99.90;;;;;;5050314;28;20486;-72
2021/12/01 06:41:36;;;;;;;3.88;3.20;;;8.90;99.90;;;;;;5058574;28;20498;-73
2021/12/01 06:44:03;;;;;;;3.15;2.40;;;8.90;99.90;;;;;;5053399;28;20052;-73
2021/12/01 06:46:29;;;;;;;4.80;3.05;;;8.90;99.90;;;;;;5052330;28;20065;-74
2021/12/01 06:48:56;;;;;;;4.43;3.58;;;8.80;99.90;;;;;;5067428;28;20161;-74
2021/12/01 06:51:22;;;;;;;5.03;3.92;;;8.70;99.90;;;;;;5073082;28;20084;-73
2021/12/01 06:53:47;;;;;;;5.32;3.70;;;8.70;99.90;;;;;;5073056;28;20118;-73
2021/12/01 06:56:15;;;;;;;4.20;2.45;;;8.90;99.90;;;;;;5073422;28;20423;-73
2021/12/01 06:58:41;;;;;;;5.88;3.38;;;8.80;99.90;;;;;;5054930;28;20127;-74
2021/12/01 07:01:07;;;;;;;6.15;4.10;;;8.90;99.90;;;;;;5038042;28;20123;-75
2021/12/01 07:03:33;;;;;;;6.75;3.78;;;8.90;99.90;;;;;;5054772;28;20052;-74
2021/12/01 07:05:59;;;;;;;7.75;4.05;;;8.80;99.90;;;;;;5073476;28;20041;-76
2021/12/01 07:08:24;;;;;;;15.57;5.28;;;8.90;99.90;;;;;;5072871;28;20067;-74
2021/12/01 07:10:51;;;;;;;7.65;3.55;;;8.90;99.90;;;;;;5073004;28;20070;-76
2021/12/01 07:13:17;;;;;;;6.72;3.88;;;9.00;99.90;;;;;;5071224;28;20071;-75
2021/12/01 07:15:42;;;;;;;6.45;3.58;;;8.90;99.90;;;;;;5072503;28;20564;-75
2021/12/01 07:18:08;;;;;;;6.13;4.18;;;8.90;99.90;;;;;;5072991;28;20041;-76
2021/12/01 07:20:34;;;;;;;9.00;4.80;;;9.00;99.90;;;;;;5072667;28;20118;-76
2021/12/01 07:23:02;;;;;;;6.80;4.18;;;8.90;99.90;;;;;;5054691;28;20064;-75
2021/12/01 07:25:27;;;;;;;7.38;4.38;;;8.90;99.90;;;;;;5072667;28;20403;-75
2021/12/01 07:27:53;;;;;;;8.05;4.60;;;8.90;99.90;;;;;;5054043;28;20055;-74
2021/12/01 07:30:19;;;;;;;7.32;4.55;;;9.00;99.90;;;;;;5071009;28;20044;-77
2021/12/01 07:32:44;;;;;;;8.82;5.30;;;9.00;99.90;;;;;;5070149;28;20135;-76
2021/12/01 07:35:10;;;;;;;12.57;4.97;;;9.00;99.90;;;;;;5044583;28;20032;-75
2021/12/01 07:37:35;;;;;;;9.10;3.83;;;9.00;99.90;;;;;;5070787;28;20072;-76
2021/12/01 07:40:01;;;;;;;27.55;6.72;;;9.10;99.90;;;;;;5053161;28;20461;-74
2021/12/01 07:42:27;;;;;;;6.65;4.00;;;9.00;99.90;;;;;;5072244;28;20129;-75
2021/12/01 07:44:52;;;;;;;8.52;4.90;;;9.00;99.90;;;;;;5052032;28;20040;-76
2021/12/01 07:47:18;;;;;;;7.80;5.35;;;9.00;99.90;;;;;;5053558;28;20049;-75
2021/12/01 07:49:43;;;;;;;9.65;4.80;;;9.10;99.90;;;;;;5072457;28;20123;-76
2021/12/01 07:52:09;;;;;;;8.10;4.80;;;9.00;99.90;;;;;;5071781;28;20041;-76
2021/12/01 07:54:36;;;;;;;8.45;5.20;;;9.10;99.90;;;;;;5071922;28;20064;-76
2021/12/01 07:57:02;;;;;;;10.82;5.03;;;9.10;99.90;;;;;;5072262;28;20087;-75
2021/12/01 07:59:28;;;;;;;31.88;5.55;;;9.00;99.90;;;;;;5052415;28;20044;-76
2021/12/01 08:01:54;;;;;;;9.75;4.32;;;9.00;99.90;;;;;;5034213;28;20561;-76
2021/12/01 08:04:19;;;;;;;12.65;5.03;;;9.10;99.90;;;;;;5068179;28;20040;-77
2021/12/01 08:06:45;;;;;;;7.53;4.15;;;9.10;99.90;;;;;;5071914;28;20044;-76
2021/12/01 08:09:11;;;;;;;9.25;4.43;;;9.00;99.90;;;;;;5054254;28;20478;-77
2021/12/01 08:11:38;;;;;;;10.85;5.82;;;9.10;99.90;;;;;;5070172;28;20510;-75
2021/12/01 08:14:06;;;;;;;12.00;5.55;;;9.00;99.90;;;;;;5071457;28;20049;-76
2021/12/01 08:16:33;;;;;;;10.38;5.78;;;9.00;99.90;;;;;;5052276;28;20115;-74
2021/12/01 08:18:58;;;;;;;6.47;4.05;;;8.90;99.90;;;;;;5071863;28;20047;-75
2021/12/01 08:21:25;;;;;;;9.98;2.47;;;9.00;99.90;;;;;;5053230;28;20056;-76
2021/12/01 08:23:53;;;;;;;11.38;2.97;;;8.90;99.90;;;;;;5072177;28;20044;-77
2021/12/01 08:26:20;;;;;;;9.40;2.13;;;8.80;99.90;;;;;;5071688;28;20036;-76
2021/12/01 08:28:47;;;;;;;9.25;1.30;;;8.80;99.90;;;;;;5053915;28;20055;-76
2021/12/01 08:31:14;;;;;;;7.68;2.25;;;8.70;99.90;;;;;;5071308;28;20044;-76
2021/12/01 08:33:40;;;;;;;12.43;2.70;;;8.70;99.90;;;;;;5071780;28;20032;-76
2021/12/01 08:36:06;;;;;;;11.32;2.30;;;8.70;99.90;;;;;;5071735;28;20072;-76
2021/12/01 08:38:31;;;;;;;7.28;1.30;;;8.60;99.90;;;;;;5053832;28;20045;-76
2021/12/01 08:40:58;;;;;;;13.48;4.07;;;8.60;99.90;;;;;;5071397;28;20430;-77
2021/12/01 08:43:23;;;;;;;28.75;4.05;;;8.50;99.90;;;;;;5069966;28;20517;-77
2021/12/01 08:45:49;;;;;;;11.07;2.50;;;8.50;99.90;;;;;;5069366;28;20137;-76
2021/12/01 08:48:15;;;;;;;19.50;2.85;;;8.60;99.90;;;;;;5069548;28;20158;-76
2021/12/01 08:50:40;;;;;;;10.88;2.13;;;8.60;99.90;;;;;;5071000;28;20032;-74
2021/12/01 08:53:06;;;;;;;15.93;5.05;;;8.60;99.90;;;;;;5070824;28;20514;-73
2021/12/01 08:55:32;;;;;;;6.13;1.58;;;8.60;99.90;;;;;;5053025;28;20663;-73
2021/12/01 08:57:58;;;;;;;10.00;2.60;;;8.60;99.90;;;;;;5070519;28;20048;-73
2021/12/01 09:00:23;;;;;;;14.48;2.50;;;8.60;99.90;;;;;;5050920;28;20048;-73
2021/12/01 09:02:49;;;;;;;15.00;1.65;;;8.60;99.90;;;;;;5070442;28;20421;-75
2021/12/01 09:05:15;;;;;;;10.40;3.47;;;8.70;99.90;;;;;;5070547;28;20411;-74
2021/12/01 09:07:40;;;;;;;9.85;2.33;;;8.60;99.90;;;;;;5064678;28;20044;-74
2021/12/01 09:10:06;;;;;;;38.92;4.30;;;8.60;99.90;;;;;;5050595;28;20120;-73
2021/12/01 09:12:32;;;;;;;11.27;1.85;;;8.60;99.90;;;;;;5069047;28;20037;-76
2021/12/01 09:14:58;;;;;;;11.77;1.92;;;8.50;99.90;;;;;;5052121;28;20033;-76
2021/12/01 09:17:25;;;;;;;7.07;1.70;;;8.40;99.90;;;;;;5067602;28;20059;-74
2021/12/01 09:19:51;;;;;;;12.98;1.88;;;8.40;99.90;;;;;;5050499;28;20052;-74
2021/12/01 09:22:18;;;;;;;20.70;2.78;;;8.40;99.90;;;;;;5069366;28;20052;-75
2021/12/01 09:24:45;;;;;;;10.35;1.55;;;8.40;99.90;;;;;;5064696;28;20127;-75
2021/12/01 09:27:11;;;;;;;9.68;2.17;;;8.40;99.90;;;;;;5069881;28;20115;-76
2021/12/01 09:29:37;;;;;;;9.88;1.38;;;8.40;99.90;;;;;;5051095;28;20044;-74
2021/12/01 09:32:03;;;;;;;13.98;1.30;;;8.40;99.90;;;;;;5070456;28;20076;-74
2021/12/01 09:34:29;;;;;;;7.47;1.70;;;8.40;99.90;;;;;;5068477;28;20141;-76
2021/12/01 09:36:56;;;;;;;13.80;2.60;;;8.40;99.90;;;;;;5051925;28;20470;-74
2021/12/01 09:39:23;;;;;;;7.78;2.67;;;8.30;99.90;;;;;;5070262;28;20051;-75
2021/12/01 09:41:48;;;;;;;10.30;2.17;;;8.30;99.90;;;;;;5070092;28;20435;-76
2021/12/01 09:44:14;;;;;;;14.73;1.98;;;8.30;99.90;;;;;;5051184;28;20196;-74
2021/12/01 09:46:41;;;;;;;11.88;3.03;;;8.40;99.90;;;;;;5069944;28;20047;-75
2021/12/01 09:49:06;;;;;;;10.02;1.63;;;8.40;99.90;;;;;;5069659;28;20039;-76
2021/12/01 09:51:32;;;;;;;12.68;2.65;;;8.50;99.90;;;;;;5052112;28;20267;-77
2021/12/01 09:54:00;;;;;;;18.77;3.00;;;8.60;99.90;;;;;;5069612;28;20048;-72
2021/12/01 09:56:26;;;;;;;18.75;4.03;;;8.50;99.90;;;;;;5051437;28;20111;-73
2021/12/01 09:58:52;;;;;;;17.40;2.47;;;8.50;99.90;;;;;;5050796;28;20105;-72
2021/12/01 10:01:20;;;;;;;24.58;4.95;;;8.50;99.90;;;;;;5069145;28;20490;-72
2021/12/01 10:03:46;;;;;;;18.67;3.70;;;8.70;99.90;;;;;;5051446;28;20096;-72
2021/12/01 10:06:14;;;;;;;20.80;3.72;;;8.70;99.90;;;;;;5068932;28;20119;-72
2021/12/01 10:08:42;;;;;;;21.20;4.70;;;8.70;99.90;;;;;;5070223;28;20036;-72
2021/12/01 10:11:13;;;;;;;24.02;4.60;;;8.70;99.90;;;;;;5052312;28;20037;-73
2021/12/01 10:13:40;;;;;;;;;;;8.70;99.90;;;;;;5069924;28;20040;-71
2021/12/01 10:16:08;;;;;;;19.85;4.47;;;8.70;99.90;;;;;;5050811;28;19966;-72
2021/12/01 10:18:40;;;;;;;24.25;5.78;;;8.70;99.90;;;;;;5031533;28;20569;-73
2021/12/01 10:21:18;;;;;;;24.95;5.07;;;8.80;99.90;;;;;;5041097;28;20053;-72
2021/12/01 10:23:57;;;;;;;18.15;3.00;;;8.70;99.90;;;;;;5069897;28;20067;-73
2021/12/01 10:26:28;;;;;;;23.20;4.22;;;8.70;99.90;;;;;;5034437;28;20044;-73
2021/12/01 10:29:02;;;;;;;15.70;3.00;;;8.70;99.90;;;;;;5068941;28;20068;-73
2021/12/01 10:31:40;;;;;;;18.75;2.80;;;8.70;99.90;;;;;;5069253;28;20040;-72
2021/12/01 10:34:36;;;;;;;15.85;5.30;;;8.60;99.90;;;;;;5051492;28;20049;-73
2021/12/01 10:37:26;;;;;;;13.30;3.45;;;8.60;99.90;;;;;;5034739;28;20144;-74
2021/12/01 10:40:18;;;;;;;9.13;1.58;;;8.40;99.90;;;;;;5050610;28;20059;-75
2021/12/01 10:42:59;;;;;;;20.98;3.75;;;8.40;99.90;;;;;;5049794;28;20056;-74
2021/12/01 10:45:36;;;;;;;15.40;3.67;;;8.40;99.90;;;;;;5046415;28;20132;-75
2021/12/01 10:48:05;;;;;;;7.03;1.30;;;8.50;99.90;;;;;;5064087;28;20109;-74
2021/12/01 10:50:34;;;;;;;10.82;2.58;;;8.50;99.90;;;;;;5069099;28;20043;-74
2021/12/01 10:53:14;;;;;;;18.77;4.15;;;8.40;99.90;;;;;;5069515;28;20059;-76
2021/12/01 10:55:47;;;;;;;16.17;3.60;;;8.50;99.90;;;;;;5035002;28;20043;-73
2021/12/01 10:58:15;;;;;;;19.95;4.45;;;8.50;99.90;;;;;;5069264;28;20041;-72
2021/12/01 11:00:53;;;;;;;14.88;3.47;;;8.50;99.90;;;;;;5050066;28;20120;-75
2021/12/01 11:03:24;;;;;;;13.90;2.42;;;8.50;99.90;;;;;;5047278;28;20045;-75
2021/12/01 11:05:52;;;;;;;16.42;2.88;;;8.60;99.90;;;;;;5048569;28;20071;-74
2021/12/01 11:08:20;;;;;;;15.52;2.78;;;8.60;99.90;;;;;;5050241;28;20060;-74
2021/12/01 11:10:49;;;;;;;18.88;2.85;;;8.70;99.90;;;;;;5069187;28;20045;-74
2021/12/01 11:13:16;;;;;;;18.20;3.83;;;8.70;99.90;;;;;;5068531;28;20374;-74
2021/12/01 11:15:52;;;;;;;16.63;2.83;;;8.70;99.90;;;;;;5067921;28;20036;-74
2021/12/01 11:18:21;;;;;;;17.38;3.28;;;8.70;99.90;;;;;;5068484;28;20076;-74
2021/12/01 11:20:54;;;;;;;24.83;2.58;;;8.60;99.90;;;;;;5068752;28;20036;-73
2021/12/01 11:23:22;;;;;;;21.98;5.05;;;8.60;99.90;;;;;;5068427;28;20060;-75
2021/12/01 11:25:48;;;;;;;22.98;4.45;;;8.60;99.90;;;;;;5067280;28;20052;-73
2021/12/01 11:28:16;;;;;;;60.05;6.40;;;8.50;99.90;;;;;;5054003;28;20055;-73
2021/12/01 11:30:44;;;;;;;17.58;3.42;;;8.60;99.90;;;;;;5054182;28;20036;-73
2021/12/01 11:33:13;;;;;;;31.15;5.47;;;8.60;99.90;;;;;;5072450;28;20489;-73
2021/12/01 11:35:41;;;;;;;29.85;7.53;;;8.60;99.90;;;;;;5069685;28;20032;-73
2021/12/01 11:38:09;;;;;;;21.35;4.22;;;8.70;99.90;;;;;;5056561;28;20051;-73
2021/12/01 11:40:34;;;;;;;32.40;6.03;;;8.60;99.90;;;;;;5052025;28;20057;-74
2021/12/01 11:43:00;;;;;;;17.90;4.30;;;8.60;99.90;;;;;;5063164;28;20158;-74
2021/12/01 11:45:26;;;;;;;30.38;4.43;;;8.50;99.90;;;;;;5070307;28;20033;-74
2021/12/01 11:47:53;;;;;;;26.63;4.97;;;8.50;99.90;;;;;;5053945;28;20052;-74
2021/12/01 11:50:32;;;;;;;22.65;5.25;;;8.30;99.90;;;;;;5054170;28;20052;-74
2021/12/01 11:53:26;;;;;;;21.00;5.05;;;8.30;99.90;;;;;;5065485;28;20040;-73
2021/12/01 11:55:58;;;;;;;29.88;4.57;;;8.30;99.90;;;;;;5042516;28;20055;-74
2021/12/01 11:58:43;;;;;;;20.70;4.57;;;8.30;99.90;;;;;;5058704;28;20048;-73
2021/12/01 12:01:21;;;;;;;18.38;4.72;;;8.30;99.90;;;;;;5038677;28;20045;-74
2021/12/01 12:04:10;;;;;;;18.08;4.65;;;8.30;99.90;;;;;;5035982;28;20559;-74
2021/12/01 12:06:43;;;;;;;29.17;6.07;;;8.30;99.90;;;;;;5051024;28;20045;-74
2021/12/01 12:09:18;;;;;;;23.70;5.38;;;8.30;99.90;;;;;;5071219;28;20040;-74
2021/12/01 12:11:59;;;;;;;27.55;5.82;;;8.30;99.90;;;;;;5045597;28;20040;-74
2021/12/01 12:14:24;;;;;;;28.98;5.53;;;8.20;99.90;;;;;;5048215;28;20099;-74
2021/12/01 12:17:25;;;;;;;23.98;3.88;;;8.20;99.90;;;;;;5053422;28;20041;-74
2021/12/01 12:19:54;;;;;;;33.50;5.68;;;8.10;99.90;;;;;;5042395;28;20052;-75
2021/12/01 12:22:41;;;;;;;17.65;4.63;;;8.20;99.90;;;;;;5064603;28;20088;-75
2021/12/01 12:25:10;;;;;;;35.20;6.03;;;8.20;99.90;;;;;;5069268;28;20048;-74
2021/12/01 12:27:41;;;;;;;20.60;5.15;;;8.30;99.90;;;;;;5052557;28;20524;-75
2021/12/01 12:30:30;;;;;;;22.30;3.97;;;8.30;99.90;;;;;;5052249;28;20049;-74
2021/12/01 12:33:30;;;;;;;14.05;2.88;;;8.30;99.90;;;;;;5053239;28;20044;-74
2021/12/01 12:36:02;;;;;;;18.50;3.08;;;8.30;99.90;;;;;;5067565;28;20075;-74
2021/12/01 12:38:29;;;;;;;14.35;2.60;;;8.30;99.90;;;;;;5049123;28;20045;-74
2021/12/01 12:41:02;;;;;;;11.63;2.28;;;8.20;99.90;;;;;;5052855;28;20094;-74
2021/12/01 12:43:29;;;;;;;27.40;4.53;;;8.10;99.90;;;;;;5068156;28;20071;-74
2021/12/01 12:46:03;;;;;;;16.55;3.25;;;8.10;99.90;;;;;;5054084;28;20059;-75
2021/12/01 12:48:33;;;;;;;26.08;3.63;;;8.10;99.90;;;;;;5048458;28;20122;-74
2021/12/01 12:51:14;;;;;;;20.42;4.30;;;8.10;99.90;;;;;;5039771;28;20072;-75
2021/12/01 12:53:58;;;;;;;;;;;8.10;99.90;;;;;;5045004;28;20417;-75
2021/12/01 12:56:30;;;;;;;23.17;4.00;;;8.10;99.90;;;;;;5070373;28;19924;-74
2021/12/01 12:59:22;;;;;;;15.82;3.53;;;8.00;99.90;;;;;;5069483;28;20032;-74